Etusivu
METAR-TAF:

METAR-TAF

Lentoasemat :

Rørvik, Norja

Leveyspiiri: 64-50N, Pituuspiiri: 011-09E, korkeus merenpinnasta: 4 m

Tämänhetkinen sää

Tämä raportti tehtiin 29 minuuttia sitten, kello 15.20 UTC
Tuuli 10 kn kaakosta
Lämpötila 12°C
Kosteus 58%
Ilmanpaine 1020 hPa
Näkyvyys 10 km tai enemmän
ei pilviä alle 1500 m:ssä eikä cumulonimbus-pilviä

METAR: ENRM 211520Z 13010KT CAVOK 12/04 Q1020

Aika: 17:49 (15:49 UTC)

Sääennuste

Tämä raportti tehtiin 1 tunti ja 49 minuuttia sitten, kello 14.00 UTC
Ennuste voimassa 21. päivästä klo 15 UTC - 21. päivään klo 20 UTC
Tuuli 12 kn kaakosta
Näkyvyys 10 km tai enemmän
ei pilviä alle 1500 m:ssä eikä cumulonimbus-pilviä
Ajoittain
21. päivästä klo 15 UTC - 21. päivään klo 20 UTC
Tuuli 15 kn kaakosta puuskistuen 25 kn:hen

TAF: ENRM 211400Z 2115/2120 13012KT CAVOK TEMPO 2115/2120 14015G25KT

Säähavainnot ja -ennusteet yli 4000 lentoasemalta (METAR- ja TAF-raportit).

Käytössä olevat sääasemat on merkitty karttaan keltaisilla ja punaisilla pisteillä.

Aseta hiiri pisteen päälle nähdäksesi sääaseman nimen.

Klikkaa sitten nähdäksesi säähavainnot ja -ennusteet.

Kartan vaihtaminen: klikkaa mustalla rastilla varustettuja vihreitä pisteitä, niin voit zoomata sisään; viivalla varustettua vihreää pistettä, niin voit zoomata ulos tai vihreitä nuolia, niin pääset viereisille kartoille.


METAR-TAF: